createdAt,value
2023-03-17T00:12:25.895Z,0.49
2023-03-17T00:27:26.065Z,0.23
2023-03-17T00:42:25.312Z,0.2
2023-03-17T00:57:29.123Z,0.62
2023-03-17T01:12:26.046Z,3.05
2023-03-17T01:42:25.848Z,0
2023-03-17T02:12:25.843Z,0
2023-03-17T02:27:25.833Z,0.12
2023-03-17T02:42:25.713Z,0
2023-03-17T02:57:25.500Z,0
2023-03-17T03:12:25.397Z,0
2023-03-17T03:42:25.289Z,0
2023-03-17T04:12:26.869Z,1.84
2023-03-17T04:27:26.048Z,6.29
2023-03-17T04:42:25.690Z,0.07
2023-03-17T04:57:25.560Z,4.67
2023-03-17T05:12:25.545Z,7.52
2023-03-17T05:27:25.252Z,0.69
2023-03-17T05:42:26.050Z,1.08
2023-03-17T05:57:25.937Z,1.86
2023-03-17T06:12:25.393Z,8.8
2023-03-17T07:57:26.149Z,0.55
2023-03-17T08:12:26.343Z,0.05
2023-03-17T08:27:25.702Z,1.1
2023-03-17T08:42:25.986Z,0.04
2023-03-17T08:57:25.517Z,0.54
2023-03-17T09:27:26.161Z,0
2023-03-17T09:57:26.149Z,0.49
2023-03-17T10:27:25.896Z,2.38
2023-03-17T10:57:26.244Z,0.09
2023-03-17T11:27:26.532Z,0
2023-03-17T11:42:26.177Z,0
2023-03-17T11:57:25.525Z,0
2023-03-17T12:12:25.951Z,0.1
2023-03-17T12:27:25.720Z,0
2023-03-17T12:42:25.923Z,0
2023-03-17T13:12:25.800Z,0.02
2023-03-17T13:42:26.558Z,0.26
2023-03-17T13:57:25.796Z,0.28
2023-03-17T14:12:27.047Z,0.3
2023-03-17T14:27:25.749Z,0
2023-03-17T14:42:25.800Z,0.22
2023-03-17T15:12:25.652Z,0.2
2023-03-17T15:27:25.922Z,3.17
2023-03-17T15:57:25.539Z,0.51
2023-03-17T16:12:27.801Z,4.12
2023-03-17T16:57:25.481Z,13.56
2023-03-17T17:12:30.886Z,17.84
2023-03-17T17:27:26.118Z,17.55
2023-03-17T17:42:26.110Z,12.98
2023-03-17T17:57:26.105Z,20.28
2023-03-17T18:12:27.266Z,17.96
2023-03-17T18:27:25.668Z,24.16
2023-03-17T18:57:26.863Z,9.33
2023-03-17T19:12:25.856Z,14.63
2023-03-17T19:27:25.560Z,14.88
2023-03-17T19:42:29.105Z,16.44
2023-03-17T19:57:25.956Z,10.98
2023-03-17T20:27:25.878Z,3.95
2023-03-17T20:42:26.163Z,4.73
2023-03-17T20:57:26.371Z,3.75
2023-03-17T21:27:25.378Z,5.05
2023-03-17T21:42:25.790Z,4.61
2023-03-17T21:57:25.829Z,9.79
2023-03-17T22:12:26.012Z,10.67
2023-03-17T22:27:25.743Z,3.34
2023-03-17T22:42:25.697Z,5.99
2023-03-17T22:57:25.918Z,5.25
2023-03-17T23:12:25.572Z,3.79
2023-03-17T23:27:25.635Z,2.25
2023-03-17T23:42:25.756Z,5.85
2023-03-17T23:57:26.045Z,3.99
